Time;durP1;ratioP1;P1;durP2;ratioP2;P2;SDS_P1;SDS_P2;PMS_P1;PMS_P2;Temp;Humidity;BMP_temperature;BMP_pressure;BME280_temperature;BME280_humidity;BME280_pressure;Samples;Min_cycle;Max_cycle;Signal;HPM_P1;HPM_P2
2023/12/16 06:16:34;;;;;;;9.60;3.97;;;;;1.50;98800.00;;;;5070241;23;20601;-68
2023/12/16 06:19:24;;;;;;;11.47;4.53;;;;;1.20;98797.00;;;;5057069;28;20474;-67
2023/12/16 06:22:14;;;;;;;5.57;2.50;;;;;1.10;98799.00;;;;5063502;28;20430;-68
2023/12/16 06:25:04;;;;;;;4.10;1.97;;;;;1.10;98802.00;;;;5049871;28;20438;-67
2023/12/16 06:27:53;;;;;;;5.63;2.70;;;;;1.00;98787.00;;;;5046308;28;20463;-68
2023/12/16 06:30:42;;;;;;;5.47;2.53;;;;;1.50;98802.00;;;;5049721;28;20454;-67
2023/12/16 06:33:33;;;;;;;15.40;5.77;;;;;1.50;98805.00;;;;5068084;23;20495;-77
2023/12/16 06:36:22;;;;;;;14.83;5.27;;;;;1.50;98811.00;;;;5022287;28;20436;-76
2023/12/16 06:39:11;;;;;;;6.40;2.47;;;;;0.70;98793.00;;;;5024099;28;20436;-75
2023/12/16 06:42:00;;;;;;;16.30;6.03;;;;;1.30;98813.00;;;;5023036;28;20444;-75
2023/12/16 06:44:49;;;;;;;11.53;4.13;;;;;1.30;98822.00;;;;5031697;28;21099;-76
2023/12/16 06:47:40;;;;;;;10.10;3.60;;;;;1.60;98829.00;;;;5031909;28;20436;-76
2023/12/16 06:50:31;;;;;;;11.27;4.03;;;;;1.60;98831.00;;;;5034072;28;20486;-76
2023/12/16 06:53:20;;;;;;;7.63;2.93;;;;;1.70;98820.00;;;;5025742;28;20464;-76
2023/12/16 06:56:10;;;;;;;5.40;2.10;;;;;1.60;98832.00;;;;5027277;28;20436;-76
2023/12/16 06:58:59;;;;;;;7.77;2.97;;;;;1.30;98828.00;;;;5028484;28;20432;-76
2023/12/16 07:01:49;;;;;;;9.93;3.60;;;;;1.60;98831.00;;;;5028435;28;20433;-76
2023/12/16 07:04:38;;;;;;;8.60;3.13;;;;;1.60;98852.00;;;;5025706;28;21069;-76
2023/12/16 07:07:28;;;;;;;12.30;4.33;;;;;1.50;98847.00;;;;5026046;28;20435;-76
2023/12/16 07:10:18;;;;;;;6.47;2.57;;;;;1.30;98844.00;;;;5028360;28;20436;-76
2023/12/16 07:13:07;;;;;;;4.33;1.80;;;;;1.00;98844.00;;;;5025194;28;20436;-76
2023/12/16 07:15:56;;;;;;;7.43;2.87;;;;;1.20;98844.00;;;;5026339;28;20444;-77
2023/12/16 07:18:45;;;;;;;11.67;4.07;;;;;1.40;98858.00;;;;5026551;28;20428;-75
2023/12/16 07:21:34;;;;;;;16.23;5.63;;;;;1.60;98863.00;;;;5025637;28;20444;-77
2023/12/16 07:24:25;;;;;;;12.00;4.10;;;;;1.60;98871.00;;;;5027259;28;20463;-76
2023/12/16 07:27:15;;;;;;;7.23;2.70;;;;;1.50;98874.00;;;;5025521;28;20446;-76
2023/12/16 07:30:05;;;;;;;8.10;2.90;;;;;1.30;98883.00;;;;5027547;28;20467;-76
2023/12/16 07:32:54;;;;;;;12.43;4.27;;;;;1.60;98870.00;;;;5027574;28;20428;-75
2023/12/16 07:35:44;;;;;;;7.47;2.70;;;;;1.90;98873.00;;;;5030338;28;20426;-77
2023/12/16 07:38:33;;;;;;;11.67;4.27;;;;;1.60;98874.00;;;;5030784;28;20420;-76
2023/12/16 07:41:23;;;;;;;12.63;4.27;;;;;1.50;98859.00;;;;5036554;28;20426;-76
2023/12/16 07:44:12;;;;;;;7.03;2.67;;;;;1.70;98873.00;;;;5028751;28;20452;-77
2023/12/16 07:47:02;;;;;;;9.00;3.10;;;;;1.70;98867.00;;;;5028260;28;20448;-76
2023/12/16 07:49:51;;;;;;;11.27;3.97;;;;;1.90;98870.00;;;;5033773;28;20471;-76
2023/12/16 07:52:40;;;;;;;8.23;2.97;;;;;1.90;98868.00;;;;5031276;28;20778;-78
2023/12/16 07:55:29;;;;;;;12.73;4.23;;;;;2.10;98877.00;;;;5029564;28;20787;-76
2023/12/16 07:58:20;;;;;;;6.90;2.53;;;;;2.10;98875.00;;;;5041635;28;20473;-76
2023/12/16 08:01:13;;;;;;;16.77;5.60;;;;;2.00;98875.00;;;;5023774;28;20944;-78
2023/12/16 08:04:02;;;;;;;8.43;2.97;;;;;2.30;98868.00;;;;5020103;28;20479;-75
2023/12/16 08:06:51;;;;;;;12.37;4.23;;;;;2.50;98875.00;;;;5028393;28;20436;-76
2023/12/16 08:09:40;;;;;;;8.57;2.93;;;;;2.60;98882.00;;;;5028659;28;20460;-76
2023/12/16 08:12:29;;;;;;;12.40;4.30;;;;;2.80;98885.00;;;;5026456;28;20443;-77
2023/12/16 08:15:20;;;;;;;6.50;2.33;;;;;3.00;98890.00;;;;5027189;28;20425;-76
2023/12/16 08:18:10;;;;;;;6.93;2.60;;;;;3.10;98893.00;;;;5027506;28;20424;-77
2023/12/16 08:20:59;;;;;;;8.70;2.93;;;;;3.20;98896.00;;;;5026413;28;20434;-76
2023/12/16 08:23:49;;;;;;;10.13;3.40;;;;;3.30;98902.00;;;;5025545;28;20985;-76
2023/12/16 08:26:38;;;;;;;16.77;5.80;;;;;3.40;98895.00;;;;5029901;28;20965;-75
2023/12/16 08:29:27;;;;;;;15.13;4.93;;;;;3.10;98891.00;;;;5027123;28;20839;-76
2023/12/16 08:32:18;;;;;;;9.53;3.20;;;;;2.50;98886.00;;;;5035041;28;20929;-76
2023/12/16 08:35:07;;;;;;;9.63;3.10;;;;;2.70;98877.00;;;;5029187;28;20480;-77
2023/12/16 08:37:57;;;;;;;9.53;3.23;;;;;2.50;98884.00;;;;5028500;28;20471;-75
2023/12/16 08:40:46;;;;;;;13.60;4.57;;;;;1.60;98866.00;;;;5028733;28;20443;-76
2023/12/16 08:43:35;;;;;;;16.77;5.50;;;;;2.30;98863.00;;;;5022720;28;20468;-76
2023/12/16 08:46:25;;;;;;;17.87;5.80;;;;;2.50;98869.00;;;;5034136;28;20496;-76
2023/12/16 08:49:15;;;;;;;9.67;3.07;;;;;2.50;98880.00;;;;5031422;28;20455;-77
2023/12/16 08:52:06;;;;;;;8.97;3.10;;;;;2.60;98885.00;;;;5036920;28;20803;-76
2023/12/16 08:54:55;;;;;;;12.53;4.27;;;;;2.50;98885.00;;;;5034399;28;20490;-75
2023/12/16 08:57:44;;;;;;;10.03;3.40;;;;;2.30;98890.00;;;;5027187;28;20451;-76
2023/12/16 09:00:33;;;;;;;19.60;6.27;;;;;2.50;98889.00;;;;5029845;28;20973;-76
2023/12/16 09:03:22;;;;;;;8.80;2.93;;;;;2.50;98886.00;;;;5029272;28;20444;-76
2023/12/16 09:06:13;;;;;;;6.80;2.33;;;;;2.60;98898.00;;;;5030855;28;20424;-76
2023/12/16 09:09:03;;;;;;;7.27;2.63;;;;;3.00;98893.00;;;;5029771;28;21020;-77
2023/12/16 09:11:52;;;;;;;10.03;3.40;;;;;3.50;98908.00;;;;5034114;28;20467;-76
2023/12/16 09:14:42;;;;;;;7.13;2.57;;;;;3.60;98893.00;;;;5029867;28;20451;-76
2023/12/16 09:17:31;;;;;;;11.07;3.93;;;;;3.10;98890.00;;;;5023577;28;21436;-76
2023/12/16 09:20:20;;;;;;;7.57;2.70;;;;;2.90;98895.00;;;;5031571;28;20432;-77
2023/12/16 09:23:11;;;;;;;6.80;2.40;;;;;3.60;98904.00;;;;5029925;28;20413;-77
2023/12/16 09:26:00;;;;;;;8.10;2.87;;;;;3.90;98910.00;;;;5029740;28;21109;-77
2023/12/16 09:28:49;;;;;;;7.10;2.60;;;;;3.10;98895.00;;;;5027630;28;20794;-77
2023/12/16 09:31:39;;;;;;;14.70;5.03;;;;;3.40;98901.00;;;;5029262;28;20690;-77
2023/12/16 09:34:28;;;;;;;15.20;5.07;;;;;3.60;98898.00;;;;5030496;28;20471;-77
2023/12/16 09:37:17;;;;;;;8.57;3.03;;;;;3.30;98895.00;;;;5024503;28;20455;-78
2023/12/16 09:40:08;;;;;;;7.83;2.83;;;;;3.50;98890.00;;;;5028152;28;20209;-77
2023/12/16 09:43:04;;;;;;;10.80;3.70;;;;;3.30;98903.00;;;;5027691;28;20451;-76
2023/12/16 09:45:54;;;;;;;9.30;3.33;;;;;3.80;98911.00;;;;5028047;28;20527;-77
2023/12/16 09:48:43;;;;;;;7.10;2.43;;;;;4.30;98909.00;;;;5033737;28;20202;-77
2023/12/16 09:51:32;;;;;;;16.50;5.43;;;;;4.00;98903.00;;;;5027986;28;20206;-79
2023/12/16 09:54:21;;;;;;;7.07;2.47;;;;;4.20;98893.00;;;;5031312;28;20448;-77
2023/12/16 09:57:13;;;;;;;9.20;2.97;;;;;4.10;98899.00;;;;5029532;28;20586;-77
2023/12/16 10:00:04;;;;;;;8.80;2.93;;;;;3.70;98885.00;;;;5032570;28;20763;-76
2023/12/16 10:02:56;;;;;;;14.63;4.60;;;;;3.90;98894.00;;;;5026494;28;20441;-76
2023/12/16 10:05:46;;;;;;;11.00;3.50;;;;;4.70;98899.00;;;;5032771;28;20435;-77
2023/12/16 10:08:35;;;;;;;11.80;3.83;;;;;5.00;98887.00;;;;5037933;28;20435;-77
2023/12/16 10:11:25;;;;;;;13.57;4.13;;;;;5.30;98899.00;;;;5032608;28;20482;-76
2023/12/16 10:14:16;;;;;;;8.23;2.70;;;;;5.50;98894.00;;;;5032962;28;20213;-76
2023/12/16 10:17:06;;;;;;;10.13;3.17;;;;;6.20;98904.00;;;;5039803;28;20205;-76
2023/12/16 10:19:55;;;;;;;14.97;4.67;;;;;6.80;98896.00;;;;5031141;28;20204;-75
2023/12/16 10:22:44;;;;;;;13.73;4.17;;;;;6.00;98894.00;;;;5027723;28;20279;-76
2023/12/16 10:25:33;;;;;;;15.83;4.97;;;;;7.10;98890.00;;;;5026984;28;20216;-76
2023/12/16 10:28:22;;;;;;;7.90;2.53;;;;;8.00;98880.00;;;;5027446;28;20263;-76
2023/12/16 10:31:13;;;;;;;8.63;2.87;;;;;8.30;98878.00;;;;5028248;28;20224;-75
2023/12/16 10:34:02;;;;;;;6.83;2.27;;;;;9.00;98882.00;;;;5028048;28;20749;-76
2023/12/16 10:36:51;;;;;;;9.87;3.13;;;;;9.70;98868.00;;;;5030205;28;20204;-75
2023/12/16 10:39:40;;;;;;;9.73;3.13;;;;;9.20;98867.00;;;;5033575;28;20301;-75
2023/12/16 10:42:29;;;;;;;14.10;4.57;;;;;10.10;98874.00;;;;5027266;28;20213;-75
2023/12/16 10:45:19;;;;;;;7.83;2.53;;;;;9.60;98876.00;;;;5029911;28;20236;-75
2023/12/16 10:48:11;;;;;;;7.93;2.60;;;;;8.60;98851.00;;;;5028022;28;20702;-76
2023/12/16 10:51:02;;;;;;;11.40;3.77;;;;;8.70;98848.00;;;;5025389;28;20221;-76
2023/12/16 10:53:58;;;;;;;8.57;2.97;;;;;9.20;98859.00;;;;5039712;28;20225;-75
2023/12/16 10:56:53;;;;;;;7.83;2.63;;;;;9.10;98852.00;;;;5032195;28;20205;-75
2023/12/16 10:59:47;;;;;;;10.30;3.33;;;;;9.40;98858.00;;;;5029443;28;20209;-76
2023/12/16 11:02:41;;;;;;;12.63;4.20;;;;;8.70;98870.00;;;;5030067;28;20212;-76
2023/12/16 11:05:34;;;;;;;12.17;3.97;;;;;8.50;98844.00;;;;5027487;28;20198;-75
2023/12/16 11:08:24;;;;;;;7.07;2.37;;;;;9.80;98836.00;;;;5025489;28;20213;-75
2023/12/16 11:11:14;;;;;;;6.13;2.00;;;;;9.90;98832.00;;;;5024325;28;20316;-75
2023/12/16 11:14:03;;;;;;;8.57;2.83;;;;;9.30;98822.00;;;;5035638;28;20224;-75
2023/12/16 11:17:05;;;;;;;9.57;3.07;;;;;9.70;98837.00;;;;5041631;28;20228;-77
2023/12/16 11:19:59;;;;;;;18.60;5.97;;;;;10.20;98837.00;;;;5029777;28;20203;-77
2023/12/16 11:22:53;;;;;;;15.30;4.70;;;;;11.80;98834.00;;;;5024320;28;20197;-76
2023/12/16 11:25:43;;;;;;;8.63;2.70;;;;;11.60;98831.00;;;;5027489;28;20232;-77
2023/12/16 11:28:32;;;;;;;14.00;4.30;;;;;11.40;98827.00;;;;5029859;28;20595;-76
2023/12/16 11:31:22;;;;;;;10.17;3.17;;;;;10.60;98814.00;;;;5028983;28;20225;-76
2023/12/16 11:34:11;;;;;;;11.03;3.40;;;;;10.80;98811.00;;;;5026283;28;20248;-75
2023/12/16 11:37:02;;;;;;;14.53;4.27;;;;;11.90;98809.00;;;;5032433;28;20205;-76
2023/12/16 11:39:53;;;;;;;18.47;5.07;;;;;13.70;98810.00;;;;5028415;28;20194;-75
2023/12/16 11:42:52;;;;;;;13.83;3.77;;;;;13.80;98803.00;;;;5026522;28;21329;-75
2023/12/16 11:45:42;;;;;;;24.27;6.40;;;;;14.30;98803.00;;;;5029827;28;20747;-76
2023/12/16 11:48:31;;;;;;;26.75;7.95;;;;;13.60;98797.00;;;;5037811;28;20246;-75
2023/12/16 11:51:20;;;;;;;15.80;7.07;;;;;13.00;98795.00;;;;5035918;28;20229;-76
2023/12/16 11:54:11;;;;;;;18.87;14.43;;;;;13.30;98792.00;;;;5038938;28;20244;-76
2023/12/16 11:57:02;;;;;;;15.50;14.00;;;;;15.00;98800.00;;;;5035371;28;20309;-75
2023/12/16 11:59:51;;;;;;;25.83;12.37;;;;;16.00;98806.00;;;;5030969;28;20204;-77
2023/12/16 12:02:41;;;;;;;26.80;12.07;;;;;13.30;98792.00;;;;5030287;28;20706;-77
2023/12/16 12:05:31;;;;;;;33.07;9.83;;;;;13.40;98794.00;;;;5031221;28;20197;-75
2023/12/16 12:08:20;;;;;;;13.37;5.07;;;;;15.40;98795.00;;;;5025273;28;20283;-75
2023/12/16 12:11:11;;;;;;;10.10;4.50;;;;;15.50;98787.00;;;;5036230;28;20661;-75
2023/12/16 12:14:02;;;;;;;14.37;5.70;;;;;16.30;98786.00;;;;5032336;28;20313;-75
2023/12/16 12:16:51;;;;;;;12.30;8.50;;;;;16.70;98779.00;;;;5027663;28;20215;-75
2023/12/16 12:19:42;;;;;;;23.23;13.03;;;;;17.20;98777.00;;;;5028112;28;20201;-75
2023/12/16 12:22:33;;;;;;;32.10;21.70;;;;;16.60;98796.00;;;;5031171;28;20224;-75
2023/12/16 12:25:22;;;;;;;105.07;98.07;;;;;14.50;98780.00;;;;5033250;28;20201;-74
2023/12/16 12:28:11;;;;;;;126.57;118.33;;;;;16.50;98788.00;;;;5034372;28;20198;-75
2023/12/16 12:31:06;;;;;;;21.23;10.07;;;;;14.20;98771.00;;;;5028725;28;20193;-76
2023/12/16 12:33:55;;;;;;;81.80;76.00;;;;;15.50;98776.00;;;;5034501;28;20304;-75
2023/12/16 12:36:46;;;;;;;195.77;178.93;;;;;16.40;98773.00;;;;5035415;28;20205;-76
2023/12/16 12:39:36;;;;;;;49.00;43.57;;;;;16.50;98766.00;;;;5028027;28;20213;-75
2023/12/16 12:42:26;;;;;;;42.77;39.07;;;;;16.10;98769.00;;;;5030092;28;20609;-75
2023/12/16 12:45:25;;;;;;;38.97;35.97;;;;;17.30;98762.00;;;;5031150;28;20226;-76
2023/12/16 12:48:17;;;;;;;8.13;3.30;;;;;17.90;98753.00;;;;5030737;28;20193;-75
2023/12/16 12:51:08;;;;;;;10.87;3.87;;;;;16.20;98757.00;;;;5032287;28;20202;-71
2023/12/16 12:53:58;;;;;;;6.07;2.27;;;;;15.90;98748.00;;;;5031133;28;20225;-77
2023/12/16 12:56:47;;;;;;;4.33;1.70;;;;;16.40;98760.00;;;;5030780;28;20731;-75
2023/12/16 12:59:36;;;;;;;14.37;5.03;;;;;14.80;98749.00;;;;5025982;28;20206;-74
2023/12/16 13:02:26;;;;;;;10.93;3.83;;;;;16.40;98755.00;;;;5027635;28;20213;-76
2023/12/16 13:05:16;;;;;;;8.30;3.03;;;;;17.10;98753.00;;;;5033057;28;20224;-76
2023/12/16 13:08:08;;;;;;;11.43;4.10;;;;;16.80;98758.00;;;;5028436;28;20225;-75
2023/12/16 13:10:57;;;;;;;10.03;3.70;;;;;15.90;98766.00;;;;5028887;28;20217;-75
2023/12/16 13:13:46;;;;;;;6.07;2.17;;;;;15.20;98764.00;;;;5028817;28;20602;-75
2023/12/16 13:16:36;;;;;;;15.13;5.33;;;;;17.40;98769.00;;;;5028566;28;20582;-75
2023/12/16 13:19:25;;;;;;;5.47;2.13;;;;;17.40;98761.00;;;;5030238;28;20208;-76
2023/12/16 13:22:16;;;;;;;8.30;3.03;;;;;18.30;98774.00;;;;5030412;28;20220;-77
2023/12/16 13:25:10;;;;;;;8.57;3.07;;;;;15.50;98776.00;;;;5029950;28;20232;-75
2023/12/16 13:28:01;;;;;;;8.47;3.00;;;;;15.30;98768.00;;;;5030021;28;20443;-74
2023/12/16 13:30:51;;;;;;;5.77;2.17;;;;;17.80;98778.00;;;;5030836;28;20204;-75
2023/12/16 13:33:42;;;;;;;13.37;4.70;;;;;18.00;98766.00;;;;5023825;28;20252;-75
2023/12/16 13:36:31;;;;;;;16.67;5.83;;;;;18.90;98800.00;;;;5032413;28;20213;-75
2023/12/16 13:39:22;;;;;;;7.77;2.83;;;;;18.10;98777.00;;;;5030610;28;20209;-74
2023/12/16 13:42:11;;;;;;;6.67;2.50;;;;;17.60;98788.00;;;;5037791;28;20229;-74
2023/12/16 13:45:00;;;;;;;6.43;2.40;;;;;16.80;98782.00;;;;5036805;28;20228;-75
2023/12/16 13:47:49;;;;;;;10.17;3.70;;;;;15.60;98771.00;;;;5033574;28;20197;-75
2023/12/16 13:50:38;;;;;;;9.97;3.83;;;;;17.40;98781.00;;;;5035063;28;20202;-75
2023/12/16 13:53:28;;;;;;;10.37;3.67;;;;;15.50;98785.00;;;;5025574;28;20228;-74
2023/12/16 13:56:18;;;;;;;8.57;3.07;;;;;15.70;98782.00;;;;5031237;28;20678;-76
2023/12/16 13:59:07;;;;;;;6.63;2.43;;;;;13.40;98777.00;;;;5029037;28;20201;-70
2023/12/16 14:01:57;;;;;;;8.40;3.13;;;;;15.10;98779.00;;;;5029569;28;20217;-76
2023/12/16 14:04:46;;;;;;;8.00;2.87;;;;;16.80;98784.00;;;;5036764;28;20227;-74
2023/12/16 14:07:35;;;;;;;11.20;3.97;;;;;14.70;98782.00;;;;5030856;28;20216;-75
2023/12/16 14:10:25;;;;;;;6.60;2.30;;;;;16.50;98780.00;;;;5026294;28;20210;-75
2023/12/16 14:13:15;;;;;;;5.07;1.90;;;;;16.10;98783.00;;;;5026303;28;20225;-74
2023/12/16 14:16:05;;;;;;;4.93;1.77;;;;;13.00;98761.00;;;;5036873;28;20216;-74
2023/12/16 14:18:54;;;;;;;6.57;2.40;;;;;15.30;98796.00;;;;5034310;28;20197;-75
2023/12/16 14:21:43;;;;;;;17.63;5.80;;;;;16.40;98791.00;;;;5034401;28;20275;-75
2023/12/16 14:24:33;;;;;;;13.20;4.50;;;;;13.00;98803.00;;;;5033254;28;20225;-75
2023/12/16 14:27:23;;;;;;;11.00;3.77;;;;;13.10;98818.00;;;;5025045;28;20202;-75
2023/12/16 14:30:14;;;;;;;8.60;3.07;;;;;11.40;98819.00;;;;5031656;28;20212;-75
2023/12/16 14:33:03;;;;;;;9.63;3.20;;;;;10.10;98815.00;;;;5035974;28;20497;-75
2023/12/16 14:35:52;;;;;;;8.00;2.67;;;;;10.00;98817.00;;;;5031734;28;20193;-76
2023/12/16 14:38:41;;;;;;;12.90;4.17;;;;;9.20;98805.00;;;;5033070;28;20218;-76
2023/12/16 14:41:30;;;;;;;19.97;5.90;;;;;8.30;98804.00;;;;5029359;28;20223;-75
2023/12/16 14:44:20;;;;;;;8.83;2.83;;;;;7.40;98800.00;;;;5035957;28;20229;-75
2023/12/16 14:47:10;;;;;;;12.87;3.67;;;;;7.40;98812.00;;;;5033248;28;20200;-76
2023/12/16 14:49:59;;;;;;;10.83;2.97;;;;;6.60;98811.00;;;;5036856;28;20216;-76
2023/12/16 14:52:48;;;;;;;18.77;5.03;;;;;6.80;98812.00;;;;5037296;28;20197;-76
2023/12/16 14:55:37;;;;;;;18.73;4.90;;;;;6.00;98799.00;;;;5031702;28;20197;-76
2023/12/16 14:58:27;;;;;;;10.73;2.80;;;;;6.60;98800.00;;;;5032491;28;20208;-75
2023/12/16 15:01:24;;;;;;;13.90;3.33;;;;;6.60;98793.00;;;;5034870;28;21029;-77
2023/12/16 15:04:15;;;;;;;8.10;2.07;;;;;6.60;98797.00;;;;5026011;28;20229;-76
2023/12/16 15:07:04;;;;;;;19.43;4.53;;;;;6.20;98794.00;;;;5034042;28;20209;-75
2023/12/16 15:09:55;;;;;;;21.83;4.93;;;;;5.00;98782.00;;;;5028642;28;20213;-76
2023/12/16 15:12:44;;;;;;;39.93;8.57;;;;;5.30;98780.00;;;;5028922;28;20201;-75
2023/12/16 15:15:33;;;;;;;40.40;13.30;;;;;5.70;98793.00;;;;5032004;28;20210;-76
2023/12/16 15:18:22;;;;;;;16.13;8.23;;;;;6.00;98788.00;;;;5029201;28;20205;-76
2023/12/16 15:21:13;;;;;;;18.17;4.00;;;;;6.00;98794.00;;;;5027348;28;20922;-75
2023/12/16 15:24:02;;;;;;;22.53;4.83;;;;;5.80;98800.00;;;;5034094;28;20245;-75
2023/12/16 15:26:51;;;;;;;16.83;3.63;;;;;5.80;98803.00;;;;5036205;28;20228;-75
2023/12/16 15:29:40;;;;;;;35.23;7.50;;;;;5.90;98808.00;;;;5030087;28;20813;-75
2023/12/16 15:32:29;;;;;;;25.30;5.43;;;;;5.90;98802.00;;;;5036550;28;20688;-76
2023/12/16 15:35:19;;;;;;;18.07;3.90;;;;;6.30;98814.00;;;;5029115;28;20215;-75
2023/12/16 15:38:09;;;;;;;20.10;4.43;;;;;5.70;98824.00;;;;5035536;28;20600;-76
2023/12/16 15:40:59;;;;;;;15.27;3.50;;;;;5.70;98819.00;;;;5031872;28;20209;-75
2023/12/16 15:43:48;;;;;;;14.03;3.27;;;;;5.20;98821.00;;;;5026286;28;20220;-75
2023/12/16 15:46:41;;;;;;;30.70;6.80;;;;;5.30;98829.00;;;;5025332;28;20205;-76
2023/12/16 15:49:30;;;;;;;23.87;5.17;;;;;5.60;98829.00;;;;5030691;28;20204;-76
2023/12/16 15:52:20;;;;;;;11.87;2.70;;;;;5.40;98823.00;;;;5031158;28;20223;-76
2023/12/16 15:55:10;;;;;;;10.07;2.47;;;;;5.70;98831.00;;;;5027903;28;20221;-76
2023/12/16 15:57:59;;;;;;;12.73;3.10;;;;;5.80;98830.00;;;;5030049;28;20201;-76
2023/12/16 16:00:49;;;;;;;11.67;2.93;;;;;5.40;98830.00;;;;5029183;28;20208;-76
2023/12/16 16:03:39;;;;;;;18.17;4.47;;;;;5.50;98829.00;;;;5033271;28;20249;-75
2023/12/16 16:06:30;;;;;;;9.67;2.50;;;;;5.20;98833.00;;;;5030325;28;20212;-75
2023/12/16 16:09:19;;;;;;;12.00;3.17;;;;;5.40;98826.00;;;;5028093;28;20212;-76
2023/12/16 16:12:10;;;;;;;13.97;3.63;;;;;5.60;98826.00;;;;5037099;28;20208;-75
2023/12/16 16:14:59;;;;;;;10.03;2.70;;;;;5.00;98825.00;;;;5031564;28;20232;-75
2023/12/16 16:17:48;;;;;;;8.07;2.17;;;;;5.00;98829.00;;;;5037243;28;20197;-76
2023/12/16 16:20:37;;;;;;;13.20;3.60;;;;;4.30;98827.00;;;;5038893;28;20258;-76
2023/12/16 16:23:26;;;;;;;10.53;2.90;;;;;4.00;98826.00;;;;5039471;28;20709;-77
2023/12/16 16:26:16;;;;;;;11.10;3.10;;;;;3.80;98839.00;;;;5042577;28;20209;-76
2023/12/16 16:29:06;;;;;;;9.03;2.53;;;;;4.20;98824.00;;;;5036467;28;20220;-76
2023/12/16 16:31:55;;;;;;;12.53;3.33;;;;;4.40;98826.00;;;;5037546;28;20207;-76
2023/12/16 16:34:44;;;;;;;19.67;5.30;;;;;4.50;98830.00;;;;5037156;28;20618;-76
2023/12/16 16:37:33;;;;;;;11.27;3.13;;;;;4.40;98836.00;;;;5035385;28;20301;-76
2023/12/16 16:40:22;;;;;;;9.60;2.73;;;;;4.10;98835.00;;;;5039939;28;20204;-76
2023/12/16 16:43:12;;;;;;;11.83;3.33;;;;;3.10;98834.00;;;;5031451;28;20235;-75
2023/12/16 16:46:02;;;;;;;13.00;3.70;;;;;3.60;98840.00;;;;5035968;28;20420;-76
2023/12/16 16:48:52;;;;;;;6.90;2.10;;;;;4.10;98848.00;;;;5044952;28;20197;-75
2023/12/16 16:51:41;;;;;;;19.83;5.47;;;;;4.30;98851.00;;;;5037481;28;20842;-74
2023/12/16 16:54:31;;;;;;;11.60;3.27;;;;;4.40;98863.00;;;;5031938;28;20221;-75
2023/12/16 16:57:22;;;;;;;7.90;2.43;;;;;3.90;98857.00;;;;5017339;28;20232;-76
2023/12/16 17:00:12;;;;;;;9.80;2.87;;;;;3.90;98862.00;;;;5040584;28;20208;-75
2023/12/16 17:03:03;;;;;;;9.23;2.77;;;;;3.80;98856.00;;;;5033839;28;20867;-75
2023/12/16 17:05:52;;;;;;;13.10;3.80;;;;;4.20;98866.00;;;;5035539;28;20212;-78
2023/12/16 17:08:41;;;;;;;17.90;5.13;;;;;4.20;98866.00;;;;5031945;28;20201;-76
2023/12/16 17:11:31;;;;;;;18.13;5.07;;;;;4.10;98866.00;;;;5030690;28;20216;-77
2023/12/16 17:14:20;;;;;;;10.27;2.97;;;;;4.30;98867.00;;;;5039781;28;20241;-77
2023/12/16 17:17:09;;;;;;;11.63;3.30;;;;;4.30;98868.00;;;;5034633;28;20240;-78
2023/12/16 17:19:59;;;;;;;14.03;4.07;;;;;4.40;98868.00;;;;5034052;28;20854;-77
2023/12/16 17:22:48;;;;;;;23.77;6.67;;;;;4.20;98870.00;;;;5028864;28;20445;-77
2023/12/16 17:25:38;;;;;;;19.87;5.67;;;;;4.30;98883.00;;;;5029700;28;20438;-75
2023/12/16 17:28:27;;;;;;;9.90;2.80;;;;;3.90;98880.00;;;;5032382;28;20436;-77
2023/12/16 17:31:17;;;;;;;11.23;3.27;;;;;3.80;98885.00;;;;5026126;28;20202;-77
2023/12/16 17:34:06;;;;;;;10.03;2.97;;;;;3.10;98872.00;;;;5036392;28;20460;-77
2023/12/16 17:36:57;;;;;;;10.03;2.93;;;;;3.30;98874.00;;;;5032228;28;20212;-77
2023/12/16 17:39:46;;;;;;;24.30;6.73;;;;;3.30;98870.00;;;;5031848;28;20216;-76
2023/12/16 17:42:35;;;;;;;16.10;4.50;;;;;3.10;98877.00;;;;5033833;28;20215;-76
2023/12/16 17:45:24;;;;;;;11.93;3.47;;;;;2.70;98878.00;;;;5035576;28;20224;-76
2023/12/16 17:48:13;;;;;;;10.37;3.10;;;;;2.00;98867.00;;;;5029840;28;20806;-75
2023/12/16 17:51:03;;;;;;;23.67;6.67;;;;;2.90;98881.00;;;;5030559;28;20209;-77
2023/12/16 17:53:56;;;;;;;7.93;2.33;;;;;3.10;98891.00;;;;5037133;28;20441;-77
2023/12/16 17:56:46;;;;;;;14.67;4.37;;;;;2.80;98881.00;;;;5032306;28;20455;-76
2023/12/16 17:59:35;;;;;;;9.07;2.70;;;;;3.10;98892.00;;;;5031138;28;20444;-77
2023/12/16 18:02:24;;;;;;;11.83;3.40;;;;;3.20;98891.00;;;;5026861;28;20872;-77
2023/12/16 18:05:16;;;;;;;14.27;3.97;;;;;3.00;98891.00;;;;5024141;28;20472;-77
2023/12/16 18:08:06;;;;;;;11.53;3.30;;;;;3.00;98895.00;;;;5030436;28;20454;-76
2023/12/16 18:11:03;;;;;;;12.37;3.57;;;;;3.00;98898.00;;;;5023991;28;20445;-76
2023/12/16 18:13:53;;;;;;;10.03;2.90;;;;;2.90;98898.00;;;;5031967;28;20443;-77
2023/12/16 18:16:42;;;;;;;21.30;5.87;;;;;2.70;98903.00;;;;5032976;28;20725;-76
2023/12/16 18:19:31;;;;;;;12.10;3.43;;;;;2.40;98897.00;;;;5037960;28;20434;-76
2023/12/16 18:22:20;;;;;;;9.20;2.70;;;;;2.70;98898.00;;;;5031875;28;20805;-75
2023/12/16 18:25:10;;;;;;;9.07;2.70;;;;;2.70;98895.00;;;;5020969;28;20478;-75
2023/12/16 18:28:01;;;;;;;7.93;2.33;;;;;2.80;98894.00;;;;5036948;28;20428;-75
2023/12/16 18:30:50;;;;;;;8.93;2.80;;;;;2.60;98898.00;;;;5032296;28;20430;-75
2023/12/16 18:33:39;;;;;;;22.37;7.10;;;;;2.00;98892.00;;;;5050837;22;20487;-67
2023/12/16 18:36:29;;;;;;;13.93;4.40;;;;;2.30;98881.00;;;;5040315;28;20569;-65
2023/12/16 18:39:19;;;;;;;8.37;2.87;;;;;2.10;98894.00;;;;5048303;28;20800;-66
2023/12/16 18:42:08;;;;;;;6.00;2.23;;;;;2.10;98901.00;;;;5047837;28;20469;-66
2023/12/16 18:44:58;;;;;;;6.93;2.43;;;;;2.10;98902.00;;;;5033853;28;20459;-66
2023/12/16 18:47:48;;;;;;;12.67;4.27;;;;;2.10;98906.00;;;;5035956;28;21014;-66
2023/12/16 18:50:37;;;;;;;10.53;3.57;;;;;2.30;98908.00;;;;5032664;28;20808;-66
2023/12/16 18:53:26;;;;;;;6.93;2.43;;;;;2.40;98899.00;;;;5028104;28;20432;-66
2023/12/16 18:56:15;;;;;;;7.07;2.63;;;;;2.50;98902.00;;;;5030109;28;21164;-66
2023/12/16 18:59:04;;;;;;;5.53;2.03;;;;;2.60;98909.00;;;;5036747;28;20420;-66
2023/12/16 19:01:55;;;;;;;9.80;3.53;;;;;2.50;98912.00;;;;5028480;28;20439;-66
2023/12/16 19:04:44;;;;;;;14.40;5.30;;;;;2.70;98905.00;;;;5029051;28;20447;-66
2023/12/16 19:07:33;;;;;;;16.03;5.53;;;;;2.80;98926.00;;;;5029513;28;20463;-66
2023/12/16 19:10:22;;;;;;;6.40;2.57;;;;;2.50;98911.00;;;;5022887;28;20901;-66
2023/12/16 19:13:11;;;;;;;7.43;2.80;;;;;2.50;98908.00;;;;5027612;28;20452;-66
2023/12/16 19:16:00;;;;;;;4.27;1.73;;;;;2.30;98921.00;;;;5032276;28;20990;-66
2023/12/16 19:18:51;;;;;;;7.30;2.70;;;;;2.40;98924.00;;;;5031617;28;20451;-65
2023/12/16 19:21:40;;;;;;;15.80;5.53;;;;;2.40;98916.00;;;;5028232;28;20448;-66
2023/12/16 19:24:29;;;;;;;5.00;1.90;;;;;2.00;98922.00;;;;5025127;28;20976;-65
2023/12/16 19:27:19;;;;;;;9.47;3.30;;;;;2.00;98913.00;;;;5026942;28;20440;-66
2023/12/16 19:30:08;;;;;;;4.40;1.77;;;;;2.10;98923.00;;;;5021747;28;20425;-66
2023/12/16 19:32:58;;;;;;;7.23;2.70;;;;;2.20;98931.00;;;;5027649;28;20489;-66
2023/12/16 19:35:48;;;;;;;9.80;3.83;;;;;1.80;98922.00;;;;5027554;28;21096;-66
2023/12/16 19:38:37;;;;;;;9.63;3.53;;;;;1.90;98939.00;;;;5028315;28;20432;-66
2023/12/16 19:41:26;;;;;;;12.33;4.37;;;;;2.00;98937.00;;;;5026540;28;20421;-66
2023/12/16 19:44:15;;;;;;;7.63;2.93;;;;;1.70;98934.00;;;;5022716;28;20464;-67
2023/12/16 19:47:05;;;;;;;9.00;3.27;;;;;1.90;98934.00;;;;5023651;28;20463;-67
2023/12/16 19:49:54;;;;;;;14.80;5.20;;;;;2.10;98941.00;;;;5025234;28;20444;-67
2023/12/16 19:52:44;;;;;;;16.43;5.77;;;;;2.00;98944.00;;;;5020708;28;20439;-67
2023/12/16 19:55:34;;;;;;;15.43;5.33;;;;;2.00;98947.00;;;;5026579;28;20468;-66
2023/12/16 19:58:23;;;;;;;9.13;3.50;;;;;1.90;98940.00;;;;5029132;28;20427;-67
2023/12/16 20:01:12;;;;;;;9.80;3.53;;;;;1.50;98939.00;;;;5028010;28;20455;-66
2023/12/16 20:04:01;;;;;;;4.90;1.97;;;;;1.10;98934.00;;;;5026262;28;20490;-66
2023/12/16 20:06:50;;;;;;;7.07;2.73;;;;;0.70;98932.00;;;;5025073;28;20440;-68
2023/12/16 20:09:40;;;;;;;12.53;4.70;;;;;0.40;98950.00;;;;5024850;28;20436;-66
2023/12/16 20:12:30;;;;;;;6.97;2.77;;;;;1.10;98954.00;;;;5026280;28;20448;-67
2023/12/16 20:15:19;;;;;;;7.27;2.93;;;;;1.20;98965.00;;;;5032945;28;20482;-67
2023/12/16 20:18:13;;;;;;;7.37;2.80;;;;;1.60;98959.00;;;;5037738;28;20434;-67
2023/12/16 20:21:03;;;;;;;5.10;2.13;;;;;1.70;98957.00;;;;5038871;28;21206;-67
2023/12/16 20:23:52;;;;;;;7.13;2.67;;;;;1.50;98958.00;;;;5033321;28;20458;-67
2023/12/16 20:26:42;;;;;;;12.80;4.93;;;;;1.40;98963.00;;;;5030170;28;20434;-67